createdAt,value
2023-02-20T00:02:16.543Z,9.86
2023-02-20T00:04:43.029Z,9.86
2023-02-20T00:07:09.586Z,9.85
2023-02-20T00:09:36.078Z,9.83
2023-02-20T00:12:02.593Z,9.85
2023-02-20T00:14:30.195Z,9.88
2023-02-20T00:16:56.887Z,9.87
2023-02-20T00:19:23.399Z,9.82
2023-02-20T00:21:51.913Z,9.76
2023-02-20T00:24:19.527Z,9.71
2023-02-20T00:26:48.048Z,9.60
2023-02-20T00:29:17.048Z,9.56
2023-02-20T00:31:43.752Z,9.68
2023-02-20T00:34:10.371Z,9.69
2023-02-20T00:36:36.863Z,9.67
2023-02-20T00:39:03.366Z,9.58
2023-02-20T00:41:29.913Z,9.61
2023-02-20T00:43:56.440Z,9.67
2023-02-20T00:46:22.919Z,9.64
2023-02-20T00:48:50.938Z,9.66
2023-02-20T00:51:17.494Z,9.63
2023-02-20T00:53:44.033Z,9.62
2023-02-20T00:56:11.268Z,9.62
2023-02-20T00:58:38.077Z,9.58
2023-02-20T01:01:04.719Z,9.56
2023-02-20T01:03:31.170Z,9.70
2023-02-20T01:05:57.672Z,9.73
2023-02-20T01:08:24.625Z,9.77
2023-02-20T01:10:51.378Z,9.79
2023-02-20T01:13:18.117Z,9.67
2023-02-20T01:15:44.688Z,9.51
2023-02-20T01:18:11.315Z,9.62
2023-02-20T01:20:37.765Z,9.58
2023-02-20T01:23:04.283Z,9.58
2023-02-20T01:25:30.789Z,9.56
2023-02-20T01:27:57.312Z,9.57
2023-02-20T01:30:23.815Z,9.57
2023-02-20T01:32:50.336Z,9.56
2023-02-20T01:35:17.082Z,9.42
2023-02-20T01:37:43.610Z,9.41
2023-02-20T01:40:19.560Z,9.32
2023-02-20T01:42:46.095Z,9.32
2023-02-20T01:45:21.901Z,9.31
2023-02-20T01:47:53.401Z,9.23
2023-02-20T01:50:23.632Z,9.22
2023-02-20T01:52:54.463Z,9.04
2023-02-20T01:55:26.022Z,8.97
2023-02-20T01:58:19.269Z,8.98
2023-02-20T02:00:45.839Z,8.92
2023-02-20T02:03:17.974Z,8.85
2023-02-20T02:05:48.577Z,8.68
2023-02-20T02:08:18.737Z,8.50
2023-02-20T02:10:53.859Z,8.51
2023-02-20T02:13:20.938Z,8.38
2023-02-20T02:15:51.805Z,8.35
2023-02-20T02:18:35.460Z,8.30
2023-02-20T02:21:20.407Z,8.38
2023-02-20T02:23:52.815Z,8.21
2023-02-20T02:26:40.580Z,8.22
2023-02-20T02:29:18.467Z,8.12
2023-02-20T02:32:06.541Z,8.17
2023-02-20T02:35:05.605Z,8.42
2023-02-20T02:37:58.709Z,8.34
2023-02-20T02:41:02.181Z,8.29
2023-02-20T02:43:37.717Z,8.43
2023-02-20T02:46:19.934Z,8.28
2023-02-20T02:49:11.408Z,7.98
2023-02-20T02:51:45.480Z,7.81
2023-02-20T02:54:15.104Z,7.68
2023-02-20T02:56:46.462Z,7.52
2023-02-20T02:59:23.020Z,7.38
2023-02-20T03:01:58.372Z,7.32
2023-02-20T03:04:29.464Z,7.32
2023-02-20T03:07:02.057Z,7.39
2023-02-20T03:09:38.819Z,7.44
2023-02-20T03:12:08.506Z,7.47
2023-02-20T03:15:06.294Z,7.28
2023-02-20T03:17:38.283Z,7.35
2023-02-20T03:20:15.952Z,6.99
2023-02-20T03:23:18.074Z,6.96
2023-02-20T03:25:54.282Z,7.00
2023-02-20T03:28:39.913Z,7.23
2023-02-20T03:31:11.162Z,7.19
2023-02-20T03:34:02.209Z,6.94
2023-02-20T03:37:01.104Z,6.76
2023-02-20T03:39:51.454Z,6.89
2023-02-20T03:42:39.731Z,7.28
2023-02-20T03:45:08.804Z,7.06
2023-02-20T03:47:39.884Z,7.03
2023-02-20T03:50:29.048Z,7.11
2023-02-20T03:52:56.024Z,7.12
2023-02-20T03:55:24.592Z,7.24
2023-02-20T03:57:55.623Z,7.16
2023-02-20T04:00:26.908Z,7.14
2023-02-20T04:03:01.129Z,7.35
2023-02-20T04:05:32.627Z,7.21
2023-02-20T04:08:06.547Z,7.21
2023-02-20T04:10:49.348Z,7.15
2023-02-20T04:13:18.009Z,7.18
2023-02-20T04:15:44.898Z,7.12
2023-02-20T04:18:15.190Z,7.02
2023-02-20T04:20:41.785Z,7.06
2023-02-20T04:23:16.398Z,7.04
2023-02-20T04:25:47.967Z,7.02
2023-02-20T04:28:16.286Z,6.88
2023-02-20T04:30:43.176Z,6.82
2023-02-20T04:33:13.616Z,6.90
2023-02-20T04:35:40.841Z,6.86
2023-02-20T04:38:08.827Z,6.83
2023-02-20T04:40:35.459Z,6.89
2023-02-20T04:43:02.009Z,6.91
2023-02-20T04:45:28.583Z,6.63
2023-02-20T04:47:55.720Z,6.69
2023-02-20T04:50:23.863Z,6.71
2023-02-20T04:52:50.516Z,6.50
2023-02-20T04:55:17.118Z,6.49
2023-02-20T04:57:43.772Z,6.60
2023-02-20T05:00:11.053Z,6.69
2023-02-20T05:02:38.743Z,6.71
2023-02-20T05:05:07.982Z,6.66
2023-02-20T05:07:34.619Z,6.62
2023-02-20T05:10:01.169Z,6.50
2023-02-20T05:12:27.728Z,6.55
2023-02-20T05:14:55.671Z,6.47
2023-02-20T05:17:22.346Z,6.49
2023-02-20T05:19:48.952Z,6.39
2023-02-20T05:22:23.091Z,6.39
2023-02-20T05:24:51.213Z,6.26
2023-02-20T05:27:20.398Z,6.29
2023-02-20T05:29:48.939Z,6.34
2023-02-20T05:32:18.524Z,6.26
2023-02-20T05:34:45.608Z,6.08
2023-02-20T05:37:14.190Z,6.09
2023-02-20T05:39:40.780Z,6.13
2023-02-20T05:42:08.395Z,6.18
2023-02-20T05:44:35.647Z,6.18
2023-02-20T05:47:03.086Z,6.11
2023-02-20T05:49:29.886Z,6.01
2023-02-20T05:51:57.415Z,6.06
2023-02-20T05:54:24.508Z,6.10
2023-02-20T05:56:51.876Z,6.04
2023-02-20T05:59:21.797Z,5.98
2023-02-20T06:01:52.601Z,6.00
2023-02-20T06:04:19.448Z,5.98
2023-02-20T06:06:45.983Z,5.90
2023-02-20T06:09:16.586Z,5.91
2023-02-20T06:11:49.803Z,6.04
2023-02-20T06:14:18.804Z,6.05
2023-02-20T06:16:46.158Z,6.03
2023-02-20T06:19:18.074Z,5.86
2023-02-20T06:21:48.338Z,5.81
2023-02-20T06:24:14.877Z,5.78
2023-02-20T06:26:42.338Z,5.77
2023-02-20T06:29:09.755Z,5.85
2023-02-20T06:31:36.464Z,5.82
2023-02-20T06:34:03.483Z,5.89
2023-02-20T06:36:34.417Z,5.88
2023-02-20T06:39:01.189Z,6.05
2023-02-20T06:41:27.758Z,6.04
2023-02-20T06:43:54.486Z,5.97
2023-02-20T06:46:22.873Z,5.92
2023-02-20T06:48:51.982Z,5.88
2023-02-20T06:51:20.898Z,5.91
2023-02-20T06:53:47.625Z,5.85
2023-02-20T06:56:27.388Z,5.89
2023-02-20T06:58:54.745Z,5.99
2023-02-20T07:01:24.055Z,6.03
2023-02-20T07:03:50.817Z,6.10
2023-02-20T07:06:17.940Z,6.08
2023-02-20T07:08:44.526Z,6.06
2023-02-20T07:11:12.138Z,6.18
2023-02-20T07:13:38.704Z,6.22
2023-02-20T07:16:05.626Z,6.23
2023-02-20T07:18:32.238Z,6.38
2023-02-20T07:20:58.759Z,6.57
2023-02-20T07:23:25.631Z,6.94
2023-02-20T07:25:52.361Z,7.28
2023-02-20T07:28:19.505Z,7.66
2023-02-20T07:30:49.193Z,7.90
2023-02-20T07:33:17.590Z,8.05
2023-02-20T07:35:44.834Z,8.09
2023-02-20T07:38:11.495Z,8.47
2023-02-20T07:40:39.989Z,8.99
2023-02-20T07:43:06.942Z,9.36
2023-02-20T07:45:33.544Z,9.29
2023-02-20T07:48:00.090Z,9.53
2023-02-20T07:50:26.755Z,10.07
2023-02-20T07:52:53.203Z,10.35
2023-02-20T07:55:20.192Z,10.76
2023-02-20T07:57:48.578Z,11.07
2023-02-20T08:00:16.928Z,11.42
2023-02-20T08:02:43.561Z,11.64
2023-02-20T08:05:11.047Z,11.80
2023-02-20T08:07:38.072Z,11.84
2023-02-20T08:10:05.835Z,11.76
2023-02-20T08:12:32.395Z,12.27
2023-02-20T08:14:58.892Z,11.84
2023-02-20T08:17:31.836Z,12.42
2023-02-20T08:20:00.969Z,12.90
2023-02-20T08:22:39.940Z,13.52
2023-02-20T08:25:07.959Z,13.71
2023-02-20T08:27:38.287Z,14.46
2023-02-20T08:30:10.241Z,15.09
2023-02-20T08:32:36.937Z,15.31
2023-02-20T08:35:03.629Z,15.41
2023-02-20T08:37:30.212Z,15.48
2023-02-20T08:39:56.743Z,15.69
2023-02-20T08:42:25.249Z,15.96
2023-02-20T08:44:51.784Z,16.24
2023-02-20T08:47:21.662Z,16.43
2023-02-20T08:49:48.833Z,16.85
2023-02-20T08:52:16.172Z,17.52
2023-02-20T08:54:49.903Z,17.33
2023-02-20T08:57:17.688Z,17.28
2023-02-20T08:59:44.477Z,16.96
2023-02-20T09:02:19.296Z,17.07
2023-02-20T09:04:47.003Z,17.39
2023-02-20T09:07:14.488Z,17.68
2023-02-20T09:09:44.623Z,17.50
2023-02-20T09:12:11.380Z,17.70
2023-02-20T09:14:38.307Z,17.69
2023-02-20T09:17:05.496Z,17.82
2023-02-20T09:19:33.095Z,18.06
2023-02-20T09:22:00.380Z,17.97
2023-02-20T09:24:32.126Z,17.45
2023-02-20T09:26:58.834Z,17.41
2023-02-20T09:29:25.785Z,17.32
2023-02-20T09:31:52.434Z,17.57
2023-02-20T09:34:19.674Z,18.41
2023-02-20T09:36:46.611Z,18.69
2023-02-20T09:39:18.592Z,18.82
2023-02-20T09:41:56.993Z,19.13
2023-02-20T09:45:08.852Z,18.97
2023-02-20T09:47:47.336Z,18.89
2023-02-20T09:50:18.354Z,18.60
2023-02-20T09:52:52.519Z,18.62
2023-02-20T09:55:22.389Z,18.74
2023-02-20T09:57:52.796Z,19.54
2023-02-20T10:00:31.056Z,19.36
2023-02-20T10:03:24.059Z,19.40
2023-02-20T10:05:52.979Z,19.23
2023-02-20T10:08:22.016Z,20.16
2023-02-20T10:10:51.618Z,20.56
2023-02-20T10:13:33.116Z,20.51
2023-02-20T10:16:25.085Z,20.12
2023-02-20T10:19:19.634Z,20.22
2023-02-20T10:21:56.615Z,20.32
2023-02-20T10:24:41.638Z,19.97
2023-02-20T10:27:39.098Z,20.79
2023-02-20T10:30:06.726Z,20.79
2023-02-20T10:32:45.465Z,21.04
2023-02-20T10:35:18.386Z,20.92
2023-02-20T10:37:50.059Z,21.10
2023-02-20T10:40:30.505Z,22.02
2023-02-20T10:43:09.238Z,21.36
2023-02-20T10:45:45.329Z,21.89
2023-02-20T10:48:15.888Z,22.06
2023-02-20T10:51:24.436Z,23.01
2023-02-20T10:54:12.764Z,22.84
2023-02-20T10:57:08.280Z,22.75
2023-02-20T10:59:44.485Z,23.72
2023-02-20T11:02:22.768Z,23.53
2023-02-20T11:05:02.666Z,23.29
2023-02-20T11:07:29.259Z,23.24
2023-02-20T11:09:55.719Z,22.98
2023-02-20T11:12:25.720Z,22.68
2023-02-20T11:14:55.452Z,22.49
2023-02-20T11:17:27.008Z,23.54
2023-02-20T11:20:00.176Z,23.34
2023-02-20T11:22:49.263Z,23.99
2023-02-20T11:25:30.171Z,23.43
2023-02-20T11:28:07.196Z,23.57
2023-02-20T11:30:40.244Z,24.10
2023-02-20T11:33:15.252Z,23.35
2023-02-20T11:35:47.106Z,22.99
2023-02-20T11:38:19.363Z,22.95
2023-02-20T11:40:48.525Z,22.78
2023-02-20T11:43:37.751Z,23.58
2023-02-20T11:46:24.354Z,24.45
2023-02-20T11:49:01.898Z,24.89
2023-02-20T11:51:43.742Z,24.41
2023-02-20T11:54:25.626Z,24.71
2023-02-20T11:57:06.179Z,24.41
2023-02-20T11:59:39.325Z,24.15
2023-02-20T12:02:18.176Z,23.89
2023-02-20T12:05:06.984Z,24.00
2023-02-20T12:07:41.258Z,24.79
2023-02-20T12:10:28.907Z,24.66
2023-02-20T12:12:55.897Z,24.47
2023-02-20T12:15:25.611Z,24.47
2023-02-20T12:18:06.079Z,24.39
2023-02-20T12:20:37.202Z,24.63
2023-02-20T12:23:28.677Z,24.88
2023-02-20T12:26:07.423Z,24.87
2023-02-20T12:28:57.754Z,23.99
2023-02-20T12:31:30.207Z,23.29
2023-02-20T12:34:21.465Z,23.96
2023-02-20T12:37:02.165Z,24.34
2023-02-20T12:39:55.955Z,24.37
2023-02-20T12:43:05.967Z,24.26
2023-02-20T12:45:44.628Z,24.75
2023-02-20T12:48:56.077Z,24.76
2023-02-20T12:52:06.182Z,24.22
2023-02-20T12:55:00.496Z,24.35
2023-02-20T12:57:41.429Z,24.54
2023-02-20T13:00:36.345Z,24.50
2023-02-20T13:03:29.489Z,24.63
2023-02-20T13:05:58.564Z,24.88
2023-02-20T13:08:35.333Z,24.07
2023-02-20T13:11:09.301Z,24.45
2023-02-20T13:13:45.156Z,24.51
2023-02-20T13:16:22.759Z,24.58
2023-02-20T13:18:59.087Z,24.52
2023-02-20T13:21:30.113Z,24.83
2023-02-20T13:24:21.457Z,23.93
2023-02-20T13:27:06.659Z,22.38
2023-02-20T13:29:36.604Z,22.85
2023-02-20T13:32:31.232Z,23.43
2023-02-20T13:35:48.941Z,22.89
2023-02-20T13:38:18.764Z,22.66
2023-02-20T13:41:07.309Z,22.71
2023-02-20T13:43:38.009Z,23.26
2023-02-20T13:46:07.601Z,23.25
2023-02-20T13:48:34.246Z,22.75
2023-02-20T13:51:15.808Z,22.23
2023-02-20T13:53:55.138Z,22.48
2023-02-20T13:56:27.539Z,21.99
2023-02-20T13:58:57.562Z,21.95
2023-02-20T14:01:24.716Z,21.93
2023-02-20T14:04:06.194Z,21.86
2023-02-20T14:06:32.846Z,21.63
2023-02-20T14:09:11.608Z,21.35
2023-02-20T14:11:39.897Z,20.91
2023-02-20T14:14:28.575Z,19.82
2023-02-20T14:17:15.924Z,20.09
2023-02-20T14:19:45.304Z,20.28
2023-02-20T14:22:20.992Z,20.13
2023-02-20T14:25:12.427Z,20.37
2023-02-20T14:27:40.578Z,20.22
2023-02-20T14:30:15.292Z,19.97
2023-02-20T14:33:01.862Z,19.84
2023-02-20T14:35:57.731Z,19.54
2023-02-20T14:38:34.585Z,19.11
2023-02-20T14:41:10.106Z,19.03
2023-02-20T14:43:36.654Z,19.07
2023-02-20T14:46:06.156Z,18.91
2023-02-20T14:48:37.545Z,18.69
2023-02-20T14:51:14.819Z,18.59
2023-02-20T14:53:43.176Z,18.43
2023-02-20T14:56:17.490Z,18.40
2023-02-20T14:58:47.712Z,18.20
2023-02-20T15:01:37.532Z,18.15
2023-02-20T15:04:09.417Z,18.20
2023-02-20T15:06:37.725Z,17.94
2023-02-20T15:09:21.001Z,17.55
2023-02-20T15:11:59.237Z,17.70
2023-02-20T15:14:28.694Z,17.71
2023-02-20T15:17:16.083Z,17.70
2023-02-20T15:19:43.153Z,17.79
2023-02-20T15:22:23.400Z,17.59
2023-02-20T15:24:50.103Z,17.31
2023-02-20T15:27:20.946Z,17.33
2023-02-20T15:29:47.753Z,17.36
2023-02-20T15:32:18.734Z,17.29
2023-02-20T15:34:50.881Z,17.18
2023-02-20T15:37:34.192Z,17.11
2023-02-20T15:40:16.021Z,17.07
2023-02-20T15:42:42.499Z,17.03
2023-02-20T15:45:12.974Z,16.89
2023-02-20T15:47:39.507Z,16.83
2023-02-20T15:50:06.340Z,16.57
2023-02-20T15:52:33.028Z,16.47
2023-02-20T15:55:01.820Z,16.58
2023-02-20T15:57:28.328Z,16.56
2023-02-20T15:59:55.839Z,16.51
2023-02-20T16:02:24.497Z,16.38
2023-02-20T16:04:52.330Z,16.38
2023-02-20T16:07:20.412Z,16.39
2023-02-20T16:09:47.511Z,16.29
2023-02-20T16:12:28.611Z,16.27
2023-02-20T16:14:55.283Z,16.17
2023-02-20T16:17:28.054Z,16.01
2023-02-20T16:19:55.459Z,16.05
2023-02-20T16:22:22.530Z,15.90
2023-02-20T16:24:49.408Z,15.95
2023-02-20T16:27:24.178Z,15.80
2023-02-20T16:29:53.222Z,15.66
2023-02-20T16:32:24.349Z,15.63
2023-02-20T16:34:51.773Z,15.51
2023-02-20T16:37:19.423Z,15.45
2023-02-20T16:39:46.097Z,15.37
2023-02-20T16:42:37.130Z,15.29
2023-02-20T16:45:16.485Z,15.13
2023-02-20T16:47:43.410Z,14.99
2023-02-20T16:50:20.012Z,14.85
2023-02-20T16:52:47.801Z,14.81
2023-02-20T16:55:27.998Z,14.56
2023-02-20T16:57:55.474Z,14.60
2023-02-20T17:00:30.872Z,14.69
2023-02-20T17:02:58.260Z,14.78
2023-02-20T17:05:30.798Z,14.88
2023-02-20T17:07:58.240Z,14.83
2023-02-20T17:10:25.745Z,14.68
2023-02-20T17:12:53.376Z,14.52
2023-02-20T17:15:21.906Z,14.37
2023-02-20T17:17:48.717Z,14.16
2023-02-20T17:20:18.516Z,14.23
2023-02-20T17:22:50.432Z,14.19
2023-02-20T17:25:22.396Z,14.00
2023-02-20T17:27:48.983Z,13.76
2023-02-20T17:30:17.604Z,13.63
2023-02-20T17:32:44.113Z,13.35
2023-02-20T17:35:10.638Z,13.50
2023-02-20T17:37:37.207Z,13.61
2023-02-20T17:40:04.793Z,13.75
2023-02-20T17:42:31.769Z,13.56
2023-02-20T17:45:00.134Z,13.26
2023-02-20T17:47:27.170Z,12.93
2023-02-20T17:49:55.597Z,12.86
2023-02-20T17:52:23.950Z,12.61
2023-02-20T17:54:52.380Z,12.77
2023-02-20T17:57:19.982Z,12.83
2023-02-20T17:59:47.054Z,12.71
2023-02-20T18:02:14.961Z,12.56
2023-02-20T18:04:42.451Z,12.65
2023-02-20T18:07:10.783Z,12.50
2023-02-20T18:09:37.515Z,12.32
2023-02-20T18:12:04.890Z,12.29
2023-02-20T18:14:31.588Z,11.99
2023-02-20T18:16:58.285Z,12.10
2023-02-20T18:19:24.924Z,11.85
2023-02-20T18:21:52.739Z,11.76
2023-02-20T18:24:26.161Z,11.58
2023-02-20T18:26:54.018Z,11.56
2023-02-20T18:29:21.152Z,11.23
2023-02-20T18:31:49.115Z,11.09
2023-02-20T18:34:15.951Z,10.99
2023-02-20T18:36:42.506Z,10.83
2023-02-20T18:39:09.945Z,10.88
2023-02-20T18:41:37.678Z,10.87
2023-02-20T18:44:04.410Z,10.64
2023-02-20T18:46:34.074Z,10.43
2023-02-20T18:49:02.482Z,10.38
2023-02-20T18:51:34.347Z,10.50
2023-02-20T18:54:01.054Z,10.93
2023-02-20T18:56:27.781Z,10.96
2023-02-20T18:58:55.126Z,11.00
2023-02-20T19:01:23.153Z,10.66
2023-02-20T19:03:53.368Z,10.45
2023-02-20T19:06:33.040Z,10.57
2023-02-20T19:09:00.389Z,10.36
2023-02-20T19:11:28.026Z,10.28
2023-02-20T19:13:54.486Z,10.36
2023-02-20T19:16:21.560Z,10.41
2023-02-20T19:18:50.753Z,10.63
2023-02-20T19:21:19.043Z,10.34
2023-02-20T19:23:46.225Z,10.31
2023-02-20T19:26:13.755Z,9.99
2023-02-20T19:28:42.230Z,9.84
2023-02-20T19:31:13.027Z,9.58
2023-02-20T19:33:40.355Z,9.68
2023-02-20T19:36:10.202Z,9.70
2023-02-20T19:38:39.097Z,9.55
2023-02-20T19:41:05.751Z,9.91
2023-02-20T19:43:32.358Z,9.87
2023-02-20T19:45:58.878Z,9.79
2023-02-20T19:48:27.778Z,9.59
2023-02-20T19:50:56.096Z,9.68
2023-02-20T19:53:23.038Z,9.68
2023-02-20T19:55:52.653Z,9.82
2023-02-20T19:58:19.205Z,10.12
2023-02-20T20:00:45.690Z,10.15
2023-02-20T20:03:12.181Z,9.99
2023-02-20T20:05:38.687Z,10.09
2023-02-20T20:08:06.765Z,10.05
2023-02-20T20:10:33.618Z,9.94
2023-02-20T20:13:00.265Z,9.97
2023-02-20T20:15:28.626Z,9.77
2023-02-20T20:17:59.590Z,9.55
2023-02-20T20:20:27.258Z,9.38
2023-02-20T20:22:55.905Z,9.25
2023-02-20T20:25:23.852Z,9.16
2023-02-20T20:27:52.048Z,9.08
2023-02-20T20:30:27.083Z,9.08
2023-02-20T20:32:53.667Z,9.00
2023-02-20T20:35:22.329Z,8.87
2023-02-20T20:37:49.083Z,8.85
2023-02-20T20:40:16.914Z,8.76
2023-02-20T20:42:43.621Z,8.71
2023-02-20T20:45:11.157Z,8.71
2023-02-20T20:47:37.703Z,8.84
2023-02-20T20:50:05.226Z,8.68
2023-02-20T20:52:32.486Z,8.62
2023-02-20T20:55:03.085Z,8.67
2023-02-20T20:57:32.407Z,8.96
2023-02-20T21:00:00.466Z,9.20
2023-02-20T21:02:28.074Z,9.29
2023-02-20T21:05:08.917Z,9.30
2023-02-20T21:07:36.586Z,9.03
2023-02-20T21:10:03.369Z,8.68
2023-02-20T21:12:29.850Z,8.60
2023-02-20T21:14:56.346Z,8.32
2023-02-20T21:17:22.845Z,8.84
2023-02-20T21:19:49.405Z,9.02
2023-02-20T21:22:15.995Z,8.99
2023-02-20T21:24:42.504Z,9.07
2023-02-20T21:27:09.008Z,8.81
2023-02-20T21:29:35.538Z,8.78
2023-02-20T21:32:02.306Z,8.75
2023-02-20T21:34:28.843Z,8.92
2023-02-20T21:36:55.846Z,8.52
2023-02-20T21:39:24.140Z,8.54
2023-02-20T21:42:10.916Z,8.60
2023-02-20T21:44:39.636Z,8.46
2023-02-20T21:47:09.922Z,8.43
2023-02-20T21:49:41.746Z,8.18
2023-02-20T21:52:08.342Z,8.44
2023-02-20T21:54:34.986Z,8.44
2023-02-20T21:57:02.342Z,8.62
2023-02-20T21:59:28.801Z,8.41
2023-02-20T22:01:55.614Z,8.22
2023-02-20T22:04:22.578Z,8.22
2023-02-20T22:07:08.590Z,8.19
2023-02-20T22:09:54.066Z,8.09
2023-02-20T22:12:39.779Z,8.10
2023-02-20T22:15:25.700Z,8.04
2023-02-20T22:18:11.181Z,7.90
2023-02-20T22:20:56.147Z,8.11
2023-02-20T22:23:40.883Z,7.96
2023-02-20T22:26:26.237Z,8.19
2023-02-20T22:29:11.068Z,8.10
2023-02-20T22:31:56.362Z,7.98
2023-02-20T22:34:41.571Z,8.10
2023-02-20T22:37:26.819Z,7.68
2023-02-20T22:40:11.745Z,7.73
2023-02-20T22:42:56.535Z,7.82
2023-02-20T22:45:41.490Z,7.59
2023-02-20T22:48:26.156Z,7.75
2023-02-20T22:51:11.070Z,7.70
2023-02-20T22:53:56.213Z,7.62
2023-02-20T22:56:42.192Z,7.48
2023-02-20T22:59:27.583Z,7.40
2023-02-20T23:02:13.025Z,7.50
2023-02-20T23:04:58.182Z,7.51
2023-02-20T23:07:45.971Z,7.52
2023-02-20T23:10:31.310Z,7.50
2023-02-20T23:13:16.710Z,7.52
2023-02-20T23:16:01.502Z,7.35
2023-02-20T23:18:46.452Z,7.53
2023-02-20T23:21:31.775Z,7.49
2023-02-20T23:24:17.105Z,7.34
2023-02-20T23:27:02.048Z,7.40
2023-02-20T23:29:47.382Z,7.27
2023-02-20T23:32:32.768Z,7.26
2023-02-20T23:35:17.931Z,7.29
2023-02-20T23:38:02.806Z,7.36
2023-02-20T23:40:47.574Z,7.30
2023-02-20T23:43:32.489Z,7.19
2023-02-20T23:46:17.520Z,7.14
2023-02-20T23:49:02.484Z,7.13
2023-02-20T23:51:47.302Z,7.19
2023-02-20T23:54:32.297Z,7.19
2023-02-20T23:57:17.082Z,7.11
